KDRT

Del Rio International Airport

Del Rio, Texas, USA
METAR KDRT 170753Z AUTO 13006KT 6SM BR OVC004 07/07 A3002 RMK AO2 SLP163 T00720072 $
Observed Flight Rules
Dec-17 @ 07:53 UTC (25 minutes ago) Instrument Flight Rules
Wind Visibility Clouds Conditions
130° at 6 knots 6 miles
  • Overcast at 400' AGL
  • Mist
Temperatures Readings
Current 7°C / 45°F
Dewpoint 7°C / 45°F
Humidity 100%
Altimeter 30.02" Hg
Pressure 1016.3 hPa
Elevation 313
METAR KDRT 170753Z AUTO 13006KT 6SM BR OVC004 07/07 A3002 RMK AO2 SLP163 T00720072 $
Observed Flight Rules
Dec-17 @ 07:53 UTC
(25 minutes ago)
LIFR
Wind Visibility
130° at 6 knots 6 miles
Clouds
  • Overcast at 400' AGL
Conditions
  • Mist
Temperature Dewpoint
7°C / 45°F 7°C / 45°F
Humidity Altimeter Pressure
100% 30.02" Hg 1016.3 hPa